PWSweather.com
Personal Weather Stations
Station Observations
W7JKG
Phoenix, AZ 85032-2083

Phoenix, AZ 85032-2083

Lat: 33.645544, Lon: -112.007099

Elevation: 1474

Station Type: Davis Vantage Pro2 Wireless

http://tiggrweather.net/

Latest ConditionsUpdated 9:00:01 PM MST Tuesday, Jul 17, 2018
Currently Today's Max Today's Min Today's Average
Temperature 100.4°F38.0°C 106.7°F41.5°C 86.6°F30.3°C 96.7°F35.9°C
Dew Point 58.2°F14.6°C 69.1°F20.6°C 56.6°F13.7°C 64.0°F17.8°C
Winds 1.2 mph WSW1.9 kmh WSW 5.8 mph -9.3 kmh - - 3.1 mph 5.0 kmh
Wind Gusts 2.3 mph3.7 kmh 11.5 mph18.5 kmh - -
Humidity 25% 56% 20% 37%
Pressure 29.85 in1010.8 mb 29.98 in1015.2 mb 29.80 in1009.1 mb -
Hour Temp Dew Point Humidity Winds Wind Gusts Pressure Precip Precip Rate Daily Precip Total
09:00 PM 100.4°F38.0°C 58.2°F14.6°C 25% 1.2 mph WSW1.9 kmh WSW 2.3 mph3.7 kmh 29.85 in1010.8 mb - 0.00 in0.0 mm 0.00 in0.0 mm
08:00 PM 101.3°F38.5°C 59.0°F15.0°C 25% 1.2 mph W1.9 kmh W 4.6 mph7.4 kmh 29.84 in1010.5 mb - 0.00 in0.0 mm 0.00 in0.0 mm
07:00 PM 104.3°F40.2°C 56.6°F13.7°C 21% 3.5 mph W5.6 kmh W 4.6 mph7.4 kmh 29.80 in1009.1 mb - 0.00 in0.0 mm 0.00 in0.0 mm
06:00 PM 106.5°F41.4°C 57.0°F13.9°C 20% 4.6 mph WSW7.4 kmh WSW 6.9 mph11.1 kmh 29.80 in1009.1 mb - 0.00 in0.0 mm 0.00 in0.0 mm
05:00 PM 106.2°F41.2°C 56.8°F13.8°C 20% 1.2 mph W1.9 kmh W 2.3 mph3.7 kmh 29.81 in1009.5 mb - 0.00 in0.0 mm 0.00 in0.0 mm
04:00 PM 106.7°F41.5°C 58.6°F14.8°C 21% 2.3 mph WSW3.7 kmh WSW 3.5 mph5.6 kmh 29.84 in1010.5 mb - 0.00 in0.0 mm 0.00 in0.0 mm
03:00 PM 106.6°F41.4°C 58.5°F14.7°C 21% 2.3 mph W3.7 kmh W 3.5 mph5.6 kmh 29.87 in1011.5 mb - 0.00 in0.0 mm 0.00 in0.0 mm
02:00 PM 105.5°F40.8°C 60.1°F15.6°C 23% 5.8 mph SSE9.3 kmh SSE 6.9 mph11.1 kmh 29.90 in1012.5 mb - 0.00 in0.0 mm 0.00 in0.0 mm
01:00 PM 104.3°F40.2°C 64.7°F18.2°C 28% 4.6 mph SSW7.4 kmh SSW 8.1 mph13.0 kmh 29.91 in1012.9 mb - 0.00 in0.0 mm 0.00 in0.0 mm
12:00 PM 101.9°F38.8°C 65.6°F18.7°C 31% 3.5 mph WNW5.6 kmh WNW 4.6 mph7.4 kmh 29.93 in1013.5 mb - 0.00 in0.0 mm 0.00 in0.0 mm
11:00 AM 99.7°F37.6°C 66.3°F19.1°C 34% 1.2 mph NW1.9 kmh NW 3.5 mph5.6 kmh 29.95 in1014.2 mb - 0.00 in0.0 mm 0.00 in0.0 mm
10:00 AM 95.8°F35.4°C 66.9°F19.4°C 39% 1.2 mph NW1.9 kmh NW 1.2 mph1.9 kmh 29.97 in1014.9 mb - 0.00 in0.0 mm 0.00 in0.0 mm
09:00 AM 92.4°F33.6°C 67.3°F19.6°C 44% Calm Calm 3.5 mph5.6 kmh 29.98 in1015.2 mb - 0.00 in0.0 mm 0.00 in0.0 mm
08:00 AM 89.3°F31.8°C 67.7°F19.8°C 49% 3.5 mph SE5.6 kmh SE 8.1 mph13.0 kmh 29.97 in1014.9 mb - 0.00 in0.0 mm 0.00 in0.0 mm
07:00 AM 88.3°F31.3°C 67.9°F19.9°C 51% 4.6 mph SE7.4 kmh SE 6.9 mph11.1 kmh 29.97 in1014.9 mb - 0.00 in0.0 mm 0.00 in0.0 mm
06:00 AM 86.7°F30.4°C 69.1°F20.6°C 56% 2.3 mph SE3.7 kmh SE 5.8 mph9.3 kmh 29.95 in1014.2 mb - 0.00 in0.0 mm 0.00 in0.0 mm
05:00 AM 86.6°F30.3°C 69.1°F20.6°C 56% 3.5 mph E5.6 kmh E 6.9 mph11.1 kmh 29.93 in1013.5 mb - 0.00 in0.0 mm 0.00 in0.0 mm
04:00 AM 87.0°F30.6°C 68.9°F20.5°C 55% 3.5 mph SSE5.6 kmh SSE 5.8 mph9.3 kmh 29.92 in1013.2 mb - 0.00 in0.0 mm 0.00 in0.0 mm
03:00 AM 88.0°F31.1°C 68.7°F20.4°C 53% 4.6 mph SE7.4 kmh SE 8.1 mph13.0 kmh 29.93 in1013.5 mb - 0.00 in0.0 mm 0.00 in0.0 mm
02:00 AM 89.0°F31.7°C 67.9°F19.9°C 50% 4.6 mph SSE7.4 kmh SSE 8.1 mph13.0 kmh 29.93 in1013.5 mb - 0.00 in0.0 mm 0.00 in0.0 mm
01:00 AM 89.7°F32.1°C 67.4°F19.7°C 48% 2.3 mph SE3.7 kmh SE 6.9 mph11.1 kmh 29.91 in1012.9 mb - 0.00 in0.0 mm 0.00 in0.0 mm
12:00 AM 91.0°F32.8°C 66.7°F19.3°C 45% 5.8 mph SE9.3 kmh SE 11.5 mph18.5 kmh 29.90 in1012.5 mb - 0.00 in0.0 mm 0.00 in0.0 mm